sensor_id;sensor_type;location;lat;lon;timestamp;pressure;altitude;pressure_sealevel;temperature;humidity
52855;BME280;38719;51.418;7.286;2023-05-31T00:02:13;100736.97;;;14.96;64.53
52855;BME280;38719;51.418;7.286;2023-05-31T00:04:41;100728.84;;;14.97;64.58
52855;BME280;38719;51.418;7.286;2023-05-31T00:07:09;100731.28;;;14.85;65.83
52855;BME280;38719;51.418;7.286;2023-05-31T00:09:36;100729.25;;;15.25;64.05
52855;BME280;38719;51.418;7.286;2023-05-31T00:12:04;100735.06;;;15.51;63.14
52855;BME280;38719;51.418;7.286;2023-05-31T00:14:32;100736.09;;;15.13;64.12
52855;BME280;38719;51.418;7.286;2023-05-31T00:17:01;100728.53;;;15.21;64.13
52855;BME280;38719;51.418;7.286;2023-05-31T00:19:49;100730.72;;;15.13;64.18
52855;BME280;38719;51.418;7.286;2023-05-31T00:22:17;100725.91;;;15.02;64.48
52855;BME280;38719;51.418;7.286;2023-05-31T00:24:44;100720.81;;;14.97;65.01
52855;BME280;38719;51.418;7.286;2023-05-31T00:27:12;100724.19;;;15.19;64.23
52855;BME280;38719;51.418;7.286;2023-05-31T00:29:39;100725.22;;;15.16;64.40
52855;BME280;38719;51.418;7.286;2023-05-31T00:32:08;100728.78;;;14.99;64.69
52855;BME280;38719;51.418;7.286;2023-05-31T00:34:36;100729.31;;;15.06;64.49
52855;BME280;38719;51.418;7.286;2023-05-31T00:37:04;100728.59;;;15.02;64.97
52855;BME280;38719;51.418;7.286;2023-05-31T00:39:32;100726.88;;;14.64;66.14
52855;BME280;38719;51.418;7.286;2023-05-31T00:41:59;100721.81;;;14.77;65.59
52855;BME280;38719;51.418;7.286;2023-05-31T00:44:27;100725.97;;;14.65;65.82
52855;BME280;38719;51.418;7.286;2023-05-31T00:46:54;100734.31;;;14.40;67.00
52855;BME280;38719;51.418;7.286;2023-05-31T00:49:23;100731.88;;;14.16;67.68
52855;BME280;38719;51.418;7.286;2023-05-31T00:51:53;100729.66;;;14.44;67.06
52855;BME280;38719;51.418;7.286;2023-05-31T00:54:21;100732.53;;;14.41;66.97
52855;BME280;38719;51.418;7.286;2023-05-31T00:56:48;100739.91;;;14.16;67.84
52855;BME280;38719;51.418;7.286;2023-05-31T00:59:16;100736.06;;;14.03;68.11
52855;BME280;38719;51.418;7.286;2023-05-31T01:01:44;100733.09;;;14.09;68.30
52855;BME280;38719;51.418;7.286;2023-05-31T01:04:11;100731.28;;;13.91;69.07
52855;BME280;38719;51.418;7.286;2023-05-31T01:06:41;100735.56;;;13.76;68.79
52855;BME280;38719;51.418;7.286;2023-05-31T01:09:09;100730.97;;;13.59;70.37
52855;BME280;38719;51.418;7.286;2023-05-31T01:11:47;100736.34;;;13.38;70.32
52855;BME280;38719;51.418;7.286;2023-05-31T01:14:25;100732.19;;;13.51;70.83
52855;BME280;38719;51.418;7.286;2023-05-31T01:17:02;100736.81;;;13.48;71.15
52855;BME280;38719;51.418;7.286;2023-05-31T01:19:42;100734.38;;;13.21;71.36
52855;BME280;38719;51.418;7.286;2023-05-31T01:22:25;100738.38;;;12.90;72.85
52855;BME280;38719;51.418;7.286;2023-05-31T01:25:12;100735.22;;;12.80;72.68
52855;BME280;38719;51.418;7.286;2023-05-31T01:27:43;100732.91;;;13.14;72.10
52855;BME280;38719;51.418;7.286;2023-05-31T01:30:12;100726.47;;;13.18;72.12
52855;BME280;38719;51.418;7.286;2023-05-31T01:32:40;100733.44;;;13.01;71.99
52855;BME280;38719;51.418;7.286;2023-05-31T01:35:09;100730.94;;;12.76;73.19
52855;BME280;38719;51.418;7.286;2023-05-31T01:37:36;100741.75;;;12.73;73.73
52855;BME280;38719;51.418;7.286;2023-05-31T01:40:04;100732.00;;;12.50;73.89
52855;BME280;38719;51.418;7.286;2023-05-31T01:42:33;100730.28;;;12.49;74.64
52855;BME280;38719;51.418;7.286;2023-05-31T01:45:04;100732.97;;;12.69;74.50
52855;BME280;38719;51.418;7.286;2023-05-31T01:47:32;100730.06;;;12.53;74.20
52855;BME280;38719;51.418;7.286;2023-05-31T01:50:01;100744.41;;;12.73;72.89
52855;BME280;38719;51.418;7.286;2023-05-31T01:52:29;100737.91;;;12.58;73.77
52855;BME280;38719;51.418;7.286;2023-05-31T01:54:57;100733.56;;;12.55;74.31
52855;BME280;38719;51.418;7.286;2023-05-31T01:57:25;100732.75;;;12.53;74.49
52855;BME280;38719;51.418;7.286;2023-05-31T01:59:54;100735.06;;;12.40;74.24
52855;BME280;38719;51.418;7.286;2023-05-31T02:02:25;100733.38;;;12.38;74.34
52855;BME280;38719;51.418;7.286;2023-05-31T02:05:04;100740.44;;;12.17;75.06
52855;BME280;38719;51.418;7.286;2023-05-31T02:07:31;100738.63;;;12.17;75.65
52855;BME280;38719;51.418;7.286;2023-05-31T02:09:59;100736.59;;;12.24;75.40
52855;BME280;38719;51.418;7.286;2023-05-31T02:12:26;100746.41;;;12.68;73.66
52855;BME280;38719;51.418;7.286;2023-05-31T02:14:54;100735.47;;;12.52;73.94
52855;BME280;38719;51.418;7.286;2023-05-31T02:17:21;100729.88;;;12.58;74.42
52855;BME280;38719;51.418;7.286;2023-05-31T02:19:51;100734.69;;;12.28;75.56
52855;BME280;38719;51.418;7.286;2023-05-31T02:22:19;100739.22;;;12.48;74.59
52855;BME280;38719;51.418;7.286;2023-05-31T02:24:47;100738.75;;;12.14;74.49
52855;BME280;38719;51.418;7.286;2023-05-31T02:27:15;100730.69;;;11.92;76.39
52855;BME280;38719;51.418;7.286;2023-05-31T02:29:44;100734.75;;;12.02;75.30
52855;BME280;38719;51.418;7.286;2023-05-31T02:32:12;100747.38;;;12.21;75.41
52855;BME280;38719;51.418;7.286;2023-05-31T02:34:40;100736.66;;;11.99;75.10
52855;BME280;38719;51.418;7.286;2023-05-31T02:37:09;100744.19;;;11.87;75.23
52855;BME280;38719;51.418;7.286;2023-05-31T02:39:37;100743.28;;;11.88;74.91
52855;BME280;38719;51.418;7.286;2023-05-31T02:42:05;100741.59;;;11.86;75.73
52855;BME280;38719;51.418;7.286;2023-05-31T02:44:32;100743.56;;;11.81;76.39
52855;BME280;38719;51.418;7.286;2023-05-31T02:47:00;100743.97;;;11.93;76.02
52855;BME280;38719;51.418;7.286;2023-05-31T02:49:27;100738.09;;;11.60;75.89
52855;BME280;38719;51.418;7.286;2023-05-31T02:51:55;100743.28;;;11.39;76.92
52855;BME280;38719;51.418;7.286;2023-05-31T02:54:24;100737.41;;;11.55;77.69
52855;BME280;38719;51.418;7.286;2023-05-31T02:56:52;100732.28;;;11.49;77.27
52855;BME280;38719;51.418;7.286;2023-05-31T02:59:19;100743.50;;;11.33;78.39
52855;BME280;38719;51.418;7.286;2023-05-31T03:01:47;100735.44;;;11.60;77.69
52855;BME280;38719;51.418;7.286;2023-05-31T03:04:14;100744.25;;;11.86;76.21
52855;BME280;38719;51.418;7.286;2023-05-31T03:06:42;100738.78;;;11.65;76.44
52855;BME280;38719;51.418;7.286;2023-05-31T03:09:09;100740.38;;;11.71;76.78
52855;BME280;38719;51.418;7.286;2023-05-31T03:11:42;100735.72;;;11.76;76.07
52855;BME280;38719;51.418;7.286;2023-05-31T03:14:09;100744.25;;;11.37;77.84
52855;BME280;38719;51.418;7.286;2023-05-31T03:16:37;100738.69;;;11.43;77.47
52855;BME280;38719;51.418;7.286;2023-05-31T03:19:04;100737.25;;;11.58;77.22
52855;BME280;38719;51.418;7.286;2023-05-31T03:21:32;100733.59;;;11.37;77.67
52855;BME280;38719;51.418;7.286;2023-05-31T03:23:59;100725.38;;;11.43;77.92
52855;BME280;38719;51.418;7.286;2023-05-31T03:26:27;100729.31;;;11.56;77.74
52855;BME280;38719;51.418;7.286;2023-05-31T03:28:56;100718.25;;;11.67;77.39
52855;BME280;38719;51.418;7.286;2023-05-31T03:31:23;100720.81;;;11.70;76.88
52855;BME280;38719;51.418;7.286;2023-05-31T03:33:51;100713.38;;;11.78;77.26
52855;BME280;38719;51.418;7.286;2023-05-31T03:36:18;100718.16;;;12.18;76.57
52855;BME280;38719;51.418;7.286;2023-05-31T03:38:46;100717.41;;;12.36;74.48
52855;BME280;38719;51.418;7.286;2023-05-31T03:41:13;100719.34;;;12.33;76.17
52855;BME280;38719;51.418;7.286;2023-05-31T03:43:41;100716.53;;;12.58;74.19
52855;BME280;38719;51.418;7.286;2023-05-31T03:46:10;100715.09;;;12.49;74.92
52855;BME280;38719;51.418;7.286;2023-05-31T03:48:37;100711.13;;;12.60;75.27
52855;BME280;38719;51.418;7.286;2023-05-31T03:51:05;100712.97;;;12.80;73.47
52855;BME280;38719;51.418;7.286;2023-05-31T03:53:32;100720.41;;;12.94;73.15
52855;BME280;38719;51.418;7.286;2023-05-31T03:56:00;100723.88;;;12.53;73.99
52855;BME280;38719;51.418;7.286;2023-05-31T03:58:27;100725.38;;;12.81;72.76
52855;BME280;38719;51.418;7.286;2023-05-31T04:00:55;100729.78;;;12.61;74.85
52855;BME280;38719;51.418;7.286;2023-05-31T04:03:24;100728.78;;;12.84;73.03
52855;BME280;38719;51.418;7.286;2023-05-31T04:05:51;100745.78;;;12.83;72.63
52855;BME280;38719;51.418;7.286;2023-05-31T04:08:19;100727.22;;;13.01;73.37
52855;BME280;38719;51.418;7.286;2023-05-31T04:10:46;100727.28;;;12.99;73.57
52855;BME280;38719;51.418;7.286;2023-05-31T04:13:14;100716.78;;;13.15;73.08
52855;BME280;38719;51.418;7.286;2023-05-31T04:15:41;100722.66;;;13.03;73.19
52855;BME280;38719;51.418;7.286;2023-05-31T04:18:09;100724.13;;;13.10;72.64
52855;BME280;38719;51.418;7.286;2023-05-31T04:20:38;100723.56;;;13.24;72.03
52855;BME280;38719;51.418;7.286;2023-05-31T04:23:05;100720.31;;;13.38;72.50
52855;BME280;38719;51.418;7.286;2023-05-31T04:25:33;100708.50;;;13.21;72.93
52855;BME280;38719;51.418;7.286;2023-05-31T04:28:00;100716.25;;;13.48;71.81
52855;BME280;38719;51.418;7.286;2023-05-31T04:30:28;100714.13;;;13.57;71.38
52855;BME280;38719;51.418;7.286;2023-05-31T04:32:55;100713.00;;;13.42;72.08
52855;BME280;38719;51.418;7.286;2023-05-31T04:35:24;100721.41;;;13.32;72.43
52855;BME280;38719;51.418;7.286;2023-05-31T04:37:56;100719.13;;;13.64;70.64
52855;BME280;38719;51.418;7.286;2023-05-31T04:40:26;100718.94;;;13.48;71.61
52855;BME280;38719;51.418;7.286;2023-05-31T04:42:53;100713.78;;;13.64;71.37
52855;BME280;38719;51.418;7.286;2023-05-31T04:45:22;100724.13;;;13.72;70.63
52855;BME280;38719;51.418;7.286;2023-05-31T04:47:51;100718.47;;;13.78;70.28
52855;BME280;38719;51.418;7.286;2023-05-31T04:50:18;100714.78;;;13.81;70.01
52855;BME280;38719;51.418;7.286;2023-05-31T04:52:46;100724.88;;;13.95;69.89
52855;BME280;38719;51.418;7.286;2023-05-31T04:55:15;100721.69;;;13.86;70.08
52855;BME280;38719;51.418;7.286;2023-05-31T04:57:43;100720.13;;;13.81;70.72
52855;BME280;38719;51.418;7.286;2023-05-31T05:00:11;100711.03;;;14.04;70.53
52855;BME280;38719;51.418;7.286;2023-05-31T05:02:42;100713.59;;;14.07;69.43
52855;BME280;38719;51.418;7.286;2023-05-31T05:05:10;100715.16;;;14.11;69.54
52855;BME280;38719;51.418;7.286;2023-05-31T05:07:37;100726.59;;;14.15;69.03
52855;BME280;38719;51.418;7.286;2023-05-31T05:10:06;100717.31;;;14.03;69.46
52855;BME280;38719;51.418;7.286;2023-05-31T05:12:35;100725.81;;;13.94;70.58
52855;BME280;38719;51.418;7.286;2023-05-31T05:15:03;100719.75;;;14.46;68.98
52855;BME280;38719;51.418;7.286;2023-05-31T05:17:31;100727.88;;;14.44;68.58
52855;BME280;38719;51.418;7.286;2023-05-31T05:19:58;100733.25;;;14.25;68.99
52855;BME280;38719;51.418;7.286;2023-05-31T05:22:26;100726.31;;;14.21;70.02
52855;BME280;38719;51.418;7.286;2023-05-31T05:24:53;100721.75;;;14.23;69.33
52855;BME280;38719;51.418;7.286;2023-05-31T05:27:21;100731.78;;;14.37;69.50
52855;BME280;38719;51.418;7.286;2023-05-31T05:29:50;100728.13;;;14.76;68.51
52855;BME280;38719;51.418;7.286;2023-05-31T05:32:17;100736.31;;;14.73;67.75
52855;BME280;38719;51.418;7.286;2023-05-31T05:34:45;100735.88;;;14.82;68.22
52855;BME280;38719;51.418;7.286;2023-05-31T05:37:13;100734.19;;;14.80;67.77
52855;BME280;38719;51.418;7.286;2023-05-31T05:39:40;100733.81;;;15.05;67.30
52855;BME280;38719;51.418;7.286;2023-05-31T05:42:08;100735.78;;;14.84;67.55
52855;BME280;38719;51.418;7.286;2023-05-31T05:44:36;100731.69;;;15.12;66.90
52855;BME280;38719;51.418;7.286;2023-05-31T05:47:05;100725.94;;;15.20;66.72
52855;BME280;38719;51.418;7.286;2023-05-31T05:49:33;100730.59;;;15.16;66.46
52855;BME280;38719;51.418;7.286;2023-05-31T05:52:01;100726.25;;;15.31;66.63
52855;BME280;38719;51.418;7.286;2023-05-31T05:54:28;100725.97;;;15.36;66.17
52855;BME280;38719;51.418;7.286;2023-05-31T05:56:56;100730.91;;;15.27;66.34
52855;BME280;38719;51.418;7.286;2023-05-31T05:59:23;100733.31;;;15.50;65.80
52855;BME280;38719;51.418;7.286;2023-05-31T06:01:51;100729.13;;;15.44;65.50
52855;BME280;38719;51.418;7.286;2023-05-31T06:04:20;100730.16;;;15.41;65.67
52855;BME280;38719;51.418;7.286;2023-05-31T06:06:47;100728.38;;;15.58;65.78
52855;BME280;38719;51.418;7.286;2023-05-31T06:09:15;100720.50;;;15.55;65.58
52855;BME280;38719;51.418;7.286;2023-05-31T06:11:43;100734.50;;;15.77;65.39
52855;BME280;38719;51.418;7.286;2023-05-31T06:14:10;100726.94;;;15.86;65.07
52855;BME280;38719;51.418;7.286;2023-05-31T06:16:38;100737.03;;;15.80;65.01
52855;BME280;38719;51.418;7.286;2023-05-31T06:19:06;100730.00;;;15.78;64.90
52855;BME280;38719;51.418;7.286;2023-05-31T06:21:35;100738.78;;;15.82;64.22
52855;BME280;38719;51.418;7.286;2023-05-31T06:24:02;100742.81;;;15.90;64.38
52855;BME280;38719;51.418;7.286;2023-05-31T06:26:30;100744.59;;;15.90;64.24
52855;BME280;38719;51.418;7.286;2023-05-31T06:28:58;100746.13;;;16.11;63.69
52855;BME280;38719;51.418;7.286;2023-05-31T06:31:26;100746.38;;;16.23;62.34
52855;BME280;38719;51.418;7.286;2023-05-31T06:33:54;100741.69;;;16.10;63.51
52855;BME280;38719;51.418;7.286;2023-05-31T06:36:22;100741.00;;;16.23;63.60
52855;BME280;38719;51.418;7.286;2023-05-31T06:38:51;100740.03;;;16.08;63.24
52855;BME280;38719;51.418;7.286;2023-05-31T06:41:20;100740.41;;;16.18;63.55
52855;BME280;38719;51.418;7.286;2023-05-31T06:43:48;100739.44;;;16.19;62.98
52855;BME280;38719;51.418;7.286;2023-05-31T06:46:15;100740.56;;;16.15;63.42
52855;BME280;38719;51.418;7.286;2023-05-31T06:48:43;100739.50;;;16.33;62.85
52855;BME280;38719;51.418;7.286;2023-05-31T06:51:10;100743.00;;;16.35;62.45
52855;BME280;38719;51.418;7.286;2023-05-31T06:53:38;100729.09;;;16.59;62.60
52855;BME280;38719;51.418;7.286;2023-05-31T06:56:07;100733.03;;;16.84;61.78
52855;BME280;38719;51.418;7.286;2023-05-31T06:58:34;100735.63;;;16.85;61.16
52855;BME280;38719;51.418;7.286;2023-05-31T07:01:02;100735.25;;;16.77;61.36
52855;BME280;38719;51.418;7.286;2023-05-31T07:03:30;100733.72;;;16.87;60.76
52855;BME280;38719;51.418;7.286;2023-05-31T07:05:57;100732.09;;;16.85;61.77
52855;BME280;38719;51.418;7.286;2023-05-31T07:08:25;100731.81;;;16.89;60.70
52855;BME280;38719;51.418;7.286;2023-05-31T07:10:53;100731.28;;;16.99;61.84
52855;BME280;38719;51.418;7.286;2023-05-31T07:13:22;100734.56;;;16.73;61.65
52855;BME280;38719;51.418;7.286;2023-05-31T07:15:49;100733.16;;;17.13;60.61
52855;BME280;38719;51.418;7.286;2023-05-31T07:18:17;100721.38;;;17.15;60.73
52855;BME280;38719;51.418;7.286;2023-05-31T07:20:44;100725.44;;;17.06;60.53
52855;BME280;38719;51.418;7.286;2023-05-31T07:23:12;100731.38;;;17.28;60.23
52855;BME280;38719;51.418;7.286;2023-05-31T07:25:39;100722.06;;;17.33;60.05
52855;BME280;38719;51.418;7.286;2023-05-31T07:28:09;100729.75;;;17.25;59.81
52855;BME280;38719;51.418;7.286;2023-05-31T07:30:38;100721.56;;;17.41;59.14
52855;BME280;38719;51.418;7.286;2023-05-31T07:33:06;100715.06;;;17.45;60.19
52855;BME280;38719;51.418;7.286;2023-05-31T07:35:33;100720.72;;;17.40;59.25
52855;BME280;38719;51.418;7.286;2023-05-31T07:38:01;100718.69;;;17.30;61.09
52855;BME280;38719;51.418;7.286;2023-05-31T07:40:28;100715.72;;;17.63;59.56
52855;BME280;38719;51.418;7.286;2023-05-31T07:42:56;100726.41;;;17.50;59.40
52855;BME280;38719;51.418;7.286;2023-05-31T07:45:23;100717.47;;;17.64;59.23
52855;BME280;38719;51.418;7.286;2023-05-31T07:47:52;100719.88;;;17.69;58.72
52855;BME280;38719;51.418;7.286;2023-05-31T07:50:20;100720.72;;;17.69;59.41
52855;BME280;38719;51.418;7.286;2023-05-31T07:52:47;100715.16;;;17.87;58.24
52855;BME280;38719;51.418;7.286;2023-05-31T07:55:15;100722.66;;;17.96;58.86
52855;BME280;38719;51.418;7.286;2023-05-31T07:57:43;100716.88;;;18.02;58.00
52855;BME280;38719;51.418;7.286;2023-05-31T08:00:11;100714.47;;;18.12;58.21
52855;BME280;38719;51.418;7.286;2023-05-31T08:02:40;100715.81;;;18.19;58.31
52855;BME280;38719;51.418;7.286;2023-05-31T08:05:09;100716.41;;;18.37;57.75
52855;BME280;38719;51.418;7.286;2023-05-31T08:07:37;100719.34;;;18.34;57.44
52855;BME280;38719;51.418;7.286;2023-05-31T08:10:05;100714.56;;;18.52;56.77
52855;BME280;38719;51.418;7.286;2023-05-31T08:12:33;100711.91;;;18.65;56.35
52855;BME280;38719;51.418;7.286;2023-05-31T08:15:01;100715.38;;;18.67;56.35
52855;BME280;38719;51.418;7.286;2023-05-31T08:17:29;100719.38;;;18.75;55.88
52855;BME280;38719;51.418;7.286;2023-05-31T08:19:56;100716.88;;;18.72;55.72
52855;BME280;38719;51.418;7.286;2023-05-31T08:22:25;100704.47;;;18.96;55.25
52855;BME280;38719;51.418;7.286;2023-05-31T08:24:53;100708.13;;;18.95;55.53
52855;BME280;38719;51.418;7.286;2023-05-31T08:27:20;100696.59;;;19.19;54.86
52855;BME280;38719;51.418;7.286;2023-05-31T08:29:49;100701.88;;;19.08;54.37
52855;BME280;38719;51.418;7.286;2023-05-31T08:32:17;100697.03;;;19.13;54.35
52855;BME280;38719;51.418;7.286;2023-05-31T08:34:44;100702.25;;;19.42;53.97
52855;BME280;38719;51.418;7.286;2023-05-31T08:37:12;100697.34;;;19.60;53.87
52855;BME280;38719;51.418;7.286;2023-05-31T08:39:41;100693.38;;;19.65;53.99
52855;BME280;38719;51.418;7.286;2023-05-31T08:42:12;100693.97;;;19.82;53.75
52855;BME280;38719;51.418;7.286;2023-05-31T08:44:42;100697.25;;;19.87;52.97
52855;BME280;38719;51.418;7.286;2023-05-31T08:47:14;100682.84;;;20.00;52.48
52855;BME280;38719;51.418;7.286;2023-05-31T08:49:45;100692.88;;;20.10;52.76
52855;BME280;38719;51.418;7.286;2023-05-31T08:52:13;100693.34;;;20.28;52.50
52855;BME280;38719;51.418;7.286;2023-05-31T08:54:44;100692.88;;;20.10;51.34
52855;BME280;38719;51.418;7.286;2023-05-31T08:57:12;100692.19;;;20.20;51.38
52855;BME280;38719;51.418;7.286;2023-05-31T08:59:41;100688.00;;;20.40;51.09
52855;BME280;38719;51.418;7.286;2023-05-31T09:02:10;100686.56;;;20.47;50.44
52855;BME280;38719;51.418;7.286;2023-05-31T09:04:39;100688.34;;;20.59;51.06
52855;BME280;38719;51.418;7.286;2023-05-31T09:07:07;100688.00;;;20.88;50.22
52855;BME280;38719;51.418;7.286;2023-05-31T09:09:35;100680.34;;;20.82;48.35
52855;BME280;38719;51.418;7.286;2023-05-31T09:12:04;100680.31;;;21.06;48.67
52855;BME280;38719;51.418;7.286;2023-05-31T09:14:33;100677.97;;;21.24;48.98
52855;BME280;38719;51.418;7.286;2023-05-31T09:17:01;100683.25;;;21.15;47.43
52855;BME280;38719;51.418;7.286;2023-05-31T09:19:29;100680.97;;;21.33;47.79
52855;BME280;38719;51.418;7.286;2023-05-31T09:21:57;100673.34;;;21.61;47.70
52855;BME280;38719;51.418;7.286;2023-05-31T09:24:25;100673.13;;;21.64;45.90
52855;BME280;38719;51.418;7.286;2023-05-31T09:26:52;100665.13;;;21.73;46.01
52855;BME280;38719;51.418;7.286;2023-05-31T09:29:22;100665.47;;;22.03;44.98
52855;BME280;38719;51.418;7.286;2023-05-31T09:32:06;100664.44;;;22.04;45.18
52855;BME280;38719;51.418;7.286;2023-05-31T09:34:34;100652.13;;;22.00;42.80
52855;BME280;38719;51.418;7.286;2023-05-31T09:37:02;100657.31;;;22.03;43.29
52855;BME280;38719;51.418;7.286;2023-05-31T09:39:30;100652.44;;;22.41;43.61
52855;BME280;38719;51.418;7.286;2023-05-31T09:41:58;100658.47;;;22.33;43.18
52855;BME280;38719;51.418;7.286;2023-05-31T09:44:27;100654.09;;;22.53;42.73
52855;BME280;38719;51.418;7.286;2023-05-31T09:46:55;100655.19;;;22.62;42.61
52855;BME280;38719;51.418;7.286;2023-05-31T09:49:23;100648.09;;;22.92;43.31
52855;BME280;38719;51.418;7.286;2023-05-31T09:51:52;100645.75;;;22.77;40.88
52855;BME280;38719;51.418;7.286;2023-05-31T09:54:19;100651.88;;;22.79;41.43
52855;BME280;38719;51.418;7.286;2023-05-31T09:56:53;100641.16;;;22.99;39.29
52855;BME280;38719;51.418;7.286;2023-05-31T09:59:20;100638.25;;;23.12;39.26
52855;BME280;38719;51.418;7.286;2023-05-31T10:01:50;100632.72;;;23.44;39.66
52855;BME280;38719;51.418;7.286;2023-05-31T10:04:18;100635.28;;;23.46;39.93
52855;BME280;38719;51.418;7.286;2023-05-31T10:06:47;100642.41;;;23.37;39.48
52855;BME280;38719;51.418;7.286;2023-05-31T10:09:15;100624.47;;;23.56;38.62
52855;BME280;38719;51.418;7.286;2023-05-31T10:11:46;100627.19;;;23.56;37.69
52855;BME280;38719;51.418;7.286;2023-05-31T10:14:23;100627.50;;;23.31;36.83
52855;BME280;38719;51.418;7.286;2023-05-31T10:16:54;100619.94;;;23.76;36.76
52855;BME280;38719;51.418;7.286;2023-05-31T10:19:24;100624.16;;;23.90;37.33
52855;BME280;38719;51.418;7.286;2023-05-31T10:21:52;100614.75;;;23.94;35.28
52855;BME280;38719;51.418;7.286;2023-05-31T10:24:26;100614.81;;;23.82;37.06
52855;BME280;38719;51.418;7.286;2023-05-31T10:27:00;100608.09;;;23.87;35.43
52855;BME280;38719;51.418;7.286;2023-05-31T10:29:34;100611.88;;;23.95;35.18
52855;BME280;38719;51.418;7.286;2023-05-31T10:32:08;100612.06;;;24.13;34.17
52855;BME280;38719;51.418;7.286;2023-05-31T10:34:37;100607.91;;;24.29;34.20
52855;BME280;38719;51.418;7.286;2023-05-31T10:37:06;100609.19;;;24.25;35.14
52855;BME280;38719;51.418;7.286;2023-05-31T10:39:39;100604.59;;;24.45;34.34
52855;BME280;38719;51.418;7.286;2023-05-31T10:42:14;100592.88;;;24.64;34.54
52855;BME280;38719;51.418;7.286;2023-05-31T10:44:52;100596.75;;;24.42;33.92
52855;BME280;38719;51.418;7.286;2023-05-31T10:47:32;100592.03;;;24.24;32.65
52855;BME280;38719;51.418;7.286;2023-05-31T10:50:01;100591.31;;;24.52;33.32
52855;BME280;38719;51.418;7.286;2023-05-31T10:52:30;100588.03;;;24.68;32.73
52855;BME280;38719;51.418;7.286;2023-05-31T10:55:18;100584.41;;;24.67;34.25
52855;BME280;38719;51.418;7.286;2023-05-31T10:57:50;100582.50;;;24.87;33.37
52855;BME280;38719;51.418;7.286;2023-05-31T11:00:21;100567.28;;;25.04;33.08
52855;BME280;38719;51.418;7.286;2023-05-31T11:02:52;100572.06;;;25.30;34.44
52855;BME280;38719;51.418;7.286;2023-05-31T11:05:22;100577.50;;;25.30;33.71
52855;BME280;38719;51.418;7.286;2023-05-31T11:07:52;100579.38;;;24.53;33.35
52855;BME280;38719;51.418;7.286;2023-05-31T11:10:27;100564.72;;;24.93;33.34
52855;BME280;38719;51.418;7.286;2023-05-31T11:12:57;100565.53;;;25.03;32.17
52855;BME280;38719;51.418;7.286;2023-05-31T11:15:38;100561.53;;;25.07;31.34
52855;BME280;38719;51.418;7.286;2023-05-31T11:18:09;100569.22;;;25.22;31.71
52855;BME280;38719;51.418;7.286;2023-05-31T11:20:37;100560.09;;;25.03;31.90
52855;BME280;38719;51.418;7.286;2023-05-31T11:23:28;100560.78;;;25.15;32.94
52855;BME280;38719;51.418;7.286;2023-05-31T11:26:07;100563.88;;;25.40;32.93
52855;BME280;38719;51.418;7.286;2023-05-31T11:28:51;100556.19;;;25.53;30.85
52855;BME280;38719;51.418;7.286;2023-05-31T11:32:01;100555.28;;;25.63;31.62
52855;BME280;38719;51.418;7.286;2023-05-31T11:34:31;100557.97;;;25.35;30.82
52855;BME280;38719;51.418;7.286;2023-05-31T11:37:01;100558.03;;;25.25;30.72
52855;BME280;38719;51.418;7.286;2023-05-31T11:39:29;100555.19;;;25.17;30.38
52855;BME280;38719;51.418;7.286;2023-05-31T11:41:57;100558.25;;;25.69;31.72
52855;BME280;38719;51.418;7.286;2023-05-31T11:44:29;100558.94;;;25.71;30.62
52855;BME280;38719;51.418;7.286;2023-05-31T11:47:04;100555.81;;;26.12;31.20
52855;BME280;38719;51.418;7.286;2023-05-31T11:49:32;100554.56;;;26.25;30.22
52855;BME280;38719;51.418;7.286;2023-05-31T11:52:01;100549.19;;;26.15;30.90
52855;BME280;38719;51.418;7.286;2023-05-31T11:54:30;100544.53;;;26.25;29.81
52855;BME280;38719;51.418;7.286;2023-05-31T11:57:00;100546.13;;;26.36;29.87
52855;BME280;38719;51.418;7.286;2023-05-31T11:59:30;100545.19;;;26.27;31.06
52855;BME280;38719;51.418;7.286;2023-05-31T12:01:59;100538.72;;;26.46;30.54
52855;BME280;38719;51.418;7.286;2023-05-31T12:04:32;100545.03;;;26.47;29.96
52855;BME280;38719;51.418;7.286;2023-05-31T12:07:00;100537.34;;;26.24;29.24
52855;BME280;38719;51.418;7.286;2023-05-31T12:09:27;100535.00;;;26.29;29.28
52855;BME280;38719;51.418;7.286;2023-05-31T12:11:55;100527.09;;;26.44;30.17
52855;BME280;38719;51.418;7.286;2023-05-31T12:14:24;100521.97;;;26.67;29.83
52855;BME280;38719;51.418;7.286;2023-05-31T12:16:52;100521.09;;;26.85;29.66
52855;BME280;38719;51.418;7.286;2023-05-31T12:19:20;100526.38;;;26.86;30.44
52855;BME280;38719;51.418;7.286;2023-05-31T12:21:50;100520.84;;;27.05;30.55
52855;BME280;38719;51.418;7.286;2023-05-31T12:24:17;100506.00;;;27.07;29.10
52855;BME280;38719;51.418;7.286;2023-05-31T12:26:46;100499.34;;;27.10;29.55
52855;BME280;38719;51.418;7.286;2023-05-31T12:29:14;100497.50;;;27.10;29.50
52855;BME280;38719;51.418;7.286;2023-05-31T12:31:43;100505.69;;;27.53;30.08
52855;BME280;38719;51.418;7.286;2023-05-31T12:34:12;100505.28;;;27.40;30.09
52855;BME280;38719;51.418;7.286;2023-05-31T12:36:42;100502.94;;;27.53;29.52
52855;BME280;38719;51.418;7.286;2023-05-31T12:39:12;100501.59;;;27.57;29.69
52855;BME280;38719;51.418;7.286;2023-05-31T12:41:42;100503.13;;;27.51;29.27
52855;BME280;38719;51.418;7.286;2023-05-31T12:44:12;100493.94;;;27.69;29.37
52855;BME280;38719;51.418;7.286;2023-05-31T12:46:41;100499.41;;;27.86;28.73
52855;BME280;38719;51.418;7.286;2023-05-31T12:49:19;100497.53;;;27.78;28.80
52855;BME280;38719;51.418;7.286;2023-05-31T12:51:48;100498.88;;;27.65;28.46
52855;BME280;38719;51.418;7.286;2023-05-31T12:54:17;100503.50;;;27.65;28.40
52855;BME280;38719;51.418;7.286;2023-05-31T12:56:45;100498.38;;;27.70;28.23
52855;BME280;38719;51.418;7.286;2023-05-31T12:59:12;100490.22;;;28.03;28.00
52855;BME280;38719;51.418;7.286;2023-05-31T13:01:40;100481.44;;;27.66;28.75